createdAt,value
2023-04-03T00:00:04.169Z,46.43
2023-04-03T00:02:05.773Z,45.81
2023-04-03T00:04:07.464Z,45.12
2023-04-03T00:06:10.046Z,46.31
2023-04-03T00:08:11.557Z,45.90
2023-04-03T00:10:13.525Z,46.19
2023-04-03T00:12:15.070Z,46.65
2023-04-03T00:14:18.133Z,46.28
2023-04-03T00:16:19.818Z,46.30
2023-04-03T00:18:21.727Z,46.71
2023-04-03T00:20:23.757Z,46.48
2023-04-03T00:22:25.410Z,46.16
2023-04-03T00:24:27.171Z,45.65
2023-04-03T00:26:28.720Z,46.10
2023-04-03T00:28:30.574Z,46.07
2023-04-03T00:30:33.886Z,46.19
2023-04-03T00:32:35.549Z,46.72
2023-04-03T00:34:37.195Z,46.22
2023-04-03T00:36:38.870Z,46.68
2023-04-03T00:38:40.701Z,46.47
2023-04-03T00:40:45.028Z,46.46
2023-04-03T00:42:48.830Z,46.23
2023-04-03T00:45:29.370Z,46.27
2023-04-03T00:47:32.769Z,47.52
2023-04-03T00:49:34.851Z,46.78
2023-04-03T00:51:36.604Z,47.20
2023-04-03T00:53:40.856Z,45.90
2023-04-03T00:55:43.853Z,45.74
2023-04-03T00:57:47.382Z,46.83
2023-04-03T00:59:54.378Z,46.73
2023-04-03T01:01:56.484Z,46.56
2023-04-03T01:04:01.344Z,46.20
2023-04-03T01:06:03.768Z,46.46
2023-04-03T01:08:06.153Z,46.45
2023-04-03T01:10:10.320Z,47.06
2023-04-03T01:12:16.859Z,46.58
2023-04-03T01:14:18.624Z,46.74
2023-04-03T01:16:20.320Z,47.11
2023-04-03T01:18:24.167Z,46.86
2023-04-03T01:20:50.542Z,45.99
2023-04-03T01:22:59.583Z,46.62
2023-04-03T01:25:01.698Z,46.58
2023-04-03T01:27:07.281Z,46.56
2023-04-03T01:29:08.908Z,47.28
2023-04-03T01:31:20.525Z,46.99
2023-04-03T01:33:23.781Z,46.94
2023-04-03T01:35:25.596Z,47.40
2023-04-03T01:37:29.930Z,47.78
2023-04-03T01:39:31.528Z,47.30
2023-04-03T01:41:33.438Z,48.06
2023-04-03T01:43:35.078Z,48.78
2023-04-03T01:45:36.823Z,49.27
2023-04-03T01:47:38.475Z,48.86
2023-04-03T01:49:41.364Z,48.64
2023-04-03T01:51:43.048Z,49.85
2023-04-03T01:53:44.639Z,49.53
2023-04-03T01:55:46.261Z,49.68
2023-04-03T01:57:47.799Z,49.64
2023-04-03T01:59:49.361Z,50.11
2023-04-03T02:01:51.064Z,50.37
2023-04-03T02:03:52.820Z,50.32
2023-04-03T02:05:58.423Z,50.68
2023-04-03T02:08:00.106Z,51.08
2023-04-03T02:10:01.919Z,51.53
2023-04-03T02:12:03.768Z,51.31
2023-04-03T02:14:05.464Z,50.53
2023-04-03T02:16:08.278Z,51.00
2023-04-03T02:18:10.353Z,50.84
2023-04-03T02:20:12.397Z,51.08
2023-04-03T02:22:15.416Z,51.22
2023-04-03T02:24:17.028Z,51.26
2023-04-03T02:26:18.686Z,51.49
2023-04-03T02:28:20.342Z,51.92
2023-04-03T02:30:22.425Z,52.04
2023-04-03T02:32:24.444Z,52.22
2023-04-03T02:34:26.151Z,52.51
2023-04-03T02:36:27.740Z,52.80
2023-04-03T02:38:30.959Z,52.60
2023-04-03T02:40:32.517Z,52.54
2023-04-03T02:42:34.145Z,52.55
2023-04-03T02:44:35.866Z,53.05
2023-04-03T02:46:38.212Z,52.43
2023-04-03T02:48:40.116Z,52.57
2023-04-03T02:50:42.407Z,52.50
2023-04-03T02:52:44.018Z,52.58
2023-04-03T02:54:46.998Z,52.06
2023-04-03T02:56:48.733Z,52.26
2023-04-03T02:58:50.550Z,52.59
2023-04-03T03:00:52.154Z,53.00
2023-04-03T03:02:54.060Z,52.30
2023-04-03T03:04:58.915Z,52.33
2023-04-03T03:07:00.586Z,52.46
2023-04-03T03:09:02.270Z,52.62
2023-04-03T03:11:06.253Z,52.91
2023-04-03T03:13:07.858Z,52.27
2023-04-03T03:15:10.189Z,51.79
2023-04-03T03:17:11.837Z,52.67
2023-04-03T03:19:13.450Z,52.19
2023-04-03T03:21:15.343Z,51.92
2023-04-03T03:23:17.015Z,51.88
2023-04-03T03:25:18.569Z,52.44
2023-04-03T03:27:21.806Z,52.58
2023-04-03T03:29:23.610Z,52.16
2023-04-03T03:31:25.323Z,51.92
2023-04-03T03:33:27.356Z,51.92
2023-04-03T03:35:28.922Z,52.24
2023-04-03T03:37:30.609Z,51.93
2023-04-03T03:39:32.259Z,52.68
2023-04-03T03:41:33.924Z,51.73
2023-04-03T03:43:37.020Z,52.13
2023-04-03T03:45:38.983Z,52.76
2023-04-03T03:47:40.873Z,52.87
2023-04-03T03:49:42.639Z,52.47
2023-04-03T03:51:44.297Z,52.39
2023-04-03T03:53:45.829Z,52.34
2023-04-03T03:55:50.001Z,52.35
2023-04-03T03:57:51.559Z,52.62
2023-04-03T03:59:54.513Z,52.37
2023-04-03T04:01:56.070Z,52.53
2023-04-03T04:03:57.917Z,52.28
2023-04-03T04:05:59.527Z,52.99
2023-04-03T04:08:01.130Z,52.13
2023-04-03T04:10:02.905Z,52.09
2023-04-03T04:12:04.863Z,52.03
2023-04-03T04:14:06.914Z,52.04
2023-04-03T04:16:12.663Z,52.24
2023-04-03T04:18:14.206Z,51.99
2023-04-03T04:20:16.048Z,52.94
2023-04-03T04:22:17.667Z,52.13
2023-04-03T04:24:19.297Z,52.41
2023-04-03T04:26:21.549Z,52.41
2023-04-03T04:28:23.612Z,51.89
2023-04-03T04:30:25.153Z,52.86
2023-04-03T04:32:28.148Z,53.08
2023-04-03T04:34:29.848Z,52.74
2023-04-03T04:36:31.623Z,52.78
2023-04-03T04:38:33.223Z,53.03
2023-04-03T04:40:34.750Z,53.63
2023-04-03T04:42:36.342Z,53.56
2023-04-03T04:44:37.931Z,53.40
2023-04-03T04:46:39.523Z,52.93
2023-04-03T04:48:42.621Z,53.26
2023-04-03T04:50:44.177Z,54.40
2023-04-03T04:52:45.951Z,54.18
2023-04-03T04:54:47.634Z,53.59
2023-04-03T04:56:49.303Z,53.90
2023-04-03T04:58:51.019Z,53.44
2023-04-03T05:00:59.608Z,53.74
2023-04-03T05:03:01.229Z,53.96
2023-04-03T05:05:05.364Z,53.65
2023-04-03T05:07:07.266Z,54.19
2023-04-03T05:09:16.286Z,52.96
2023-04-03T05:11:17.959Z,53.16
2023-04-03T05:13:19.702Z,53.18
2023-04-03T05:15:21.329Z,53.50
2023-04-03T05:17:22.975Z,53.37
2023-04-03T05:19:24.585Z,53.02
2023-04-03T05:21:27.550Z,53.29
2023-04-03T05:23:29.195Z,52.90
2023-04-03T05:25:30.938Z,52.88
2023-04-03T05:27:32.809Z,53.17
2023-04-03T05:29:34.427Z,53.36
2023-04-03T05:31:36.146Z,53.33
2023-04-03T05:33:38.117Z,53.41
2023-04-03T05:35:39.931Z,54.04
2023-04-03T05:37:43.265Z,53.56
2023-04-03T05:39:45.028Z,53.85
2023-04-03T05:41:49.656Z,53.47
2023-04-03T05:43:51.582Z,53.30
2023-04-03T05:45:53.326Z,53.09
2023-04-03T05:47:55.002Z,53.52
2023-04-03T05:49:56.710Z,53.63
2023-04-03T05:51:59.735Z,52.74
2023-04-03T05:54:10.168Z,52.23
2023-04-03T05:56:11.937Z,52.65
2023-04-03T05:58:13.591Z,52.10
2023-04-03T06:00:16.246Z,52.36
2023-04-03T06:02:20.446Z,52.38
2023-04-03T06:04:22.096Z,51.97
2023-04-03T06:06:23.725Z,51.86
2023-04-03T06:08:25.492Z,52.24
2023-04-03T06:10:28.461Z,51.77
2023-04-03T06:12:30.126Z,52.44
2023-04-03T06:14:32.005Z,52.14
2023-04-03T06:16:33.776Z,51.97
2023-04-03T06:18:35.452Z,52.64
2023-04-03T06:20:37.359Z,52.58
2023-04-03T06:22:41.835Z,52.46
2023-04-03T06:24:43.457Z,52.65
2023-04-03T06:26:46.459Z,52.15
2023-04-03T06:28:47.920Z,52.24
2023-04-03T06:30:49.630Z,52.50
2023-04-03T06:32:51.693Z,52.18
2023-04-03T06:34:53.365Z,51.88
2023-04-03T06:36:55.003Z,52.52
2023-04-03T06:38:56.684Z,52.13
2023-04-03T06:40:58.608Z,51.86
2023-04-03T06:43:01.662Z,52.59
2023-04-03T06:45:03.490Z,52.85
2023-04-03T06:47:05.307Z,53.39
2023-04-03T06:49:06.970Z,53.24
2023-04-03T06:51:21.258Z,53.73
2023-04-03T06:53:22.798Z,53.54
2023-04-03T06:55:25.574Z,53.95
2023-04-03T06:57:27.232Z,53.95
2023-04-03T06:59:30.340Z,53.30
2023-04-03T07:01:32.681Z,53.26
2023-04-03T07:03:35.609Z,53.10
2023-04-03T07:05:37.478Z,52.79
2023-04-03T07:07:39.336Z,52.95
2023-04-03T07:09:41.859Z,52.63
2023-04-03T07:11:44.907Z,52.57
2023-04-03T07:13:46.665Z,52.76
2023-04-03T07:15:49.657Z,52.37
2023-04-03T07:17:51.293Z,52.34
2023-04-03T07:19:52.940Z,51.85
2023-04-03T07:21:54.694Z,51.79
2023-04-03T07:23:56.317Z,52.08
2023-04-03T07:25:58.285Z,51.47
2023-04-03T07:28:00.066Z,51.28
2023-04-03T07:30:01.676Z,50.97
2023-04-03T07:32:05.078Z,50.67
2023-04-03T07:34:06.727Z,50.32
2023-04-03T07:36:10.649Z,50.10
2023-04-03T07:38:12.964Z,49.65
2023-04-03T07:40:14.631Z,49.25
2023-04-03T07:42:16.255Z,49.99
2023-04-03T07:44:18.471Z,48.74
2023-04-03T07:46:20.250Z,48.24
2023-04-03T07:48:24.478Z,47.53
2023-04-03T07:50:26.221Z,47.63
2023-04-03T07:52:27.898Z,47.23
2023-04-03T07:54:29.653Z,46.47
2023-04-03T07:56:31.256Z,45.87
2023-04-03T07:58:32.850Z,45.99
2023-04-03T08:00:34.435Z,45.61
2023-04-03T08:02:36.147Z,46.52
2023-04-03T08:04:39.711Z,45.05
2023-04-03T08:06:46.443Z,44.96
2023-04-03T08:08:48.788Z,43.58
2023-04-03T08:10:52.379Z,43.29
2023-04-03T08:12:53.995Z,42.35
2023-04-03T08:14:55.678Z,41.51
2023-04-03T08:16:57.859Z,41.42
2023-04-03T08:18:59.794Z,41.02
2023-04-03T08:21:06.801Z,41.25
2023-04-03T08:23:09.064Z,41.50
2023-04-03T08:25:10.680Z,40.88
2023-04-03T08:27:12.327Z,41.31
2023-04-03T08:29:14.097Z,40.24
2023-04-03T08:31:17.724Z,39.92
2023-04-03T08:33:19.437Z,40.63
2023-04-03T08:35:20.968Z,39.69
2023-04-03T08:37:23.936Z,40.10
2023-04-03T08:39:26.238Z,40.17
2023-04-03T08:41:35.323Z,40.45
2023-04-03T08:43:48.823Z,39.33
2023-04-03T08:45:52.612Z,41.21
2023-04-03T08:48:01.141Z,39.44
2023-04-03T08:50:05.474Z,39.12
2023-04-03T08:52:16.588Z,37.69
2023-04-03T08:54:29.024Z,37.24
2023-04-03T08:56:32.086Z,37.54
2023-04-03T08:58:42.288Z,40.38
2023-04-03T09:00:48.864Z,37.11
2023-04-03T09:02:52.007Z,36.70
2023-04-03T09:04:53.915Z,36.60
2023-04-03T09:06:59.328Z,36.26
2023-04-03T09:09:14.507Z,35.39
2023-04-03T09:11:24.625Z,35.14
2023-04-03T09:13:38.338Z,36.11
2023-04-03T09:15:40.360Z,36.56
2023-04-03T09:17:47.369Z,35.56
2023-04-03T09:19:55.724Z,35.72
2023-04-03T09:21:58.800Z,34.97
2023-04-03T09:24:04.475Z,34.17
2023-04-03T09:26:10.430Z,33.83
2023-04-03T09:28:13.414Z,33.23
2023-04-03T09:30:16.884Z,33.59
2023-04-03T09:32:28.104Z,34.42
2023-04-03T09:34:33.077Z,35.02
2023-04-03T09:36:43.598Z,34.07
2023-04-03T09:38:45.297Z,33.88
2023-04-03T09:40:48.839Z,34.40
2023-04-03T09:42:55.447Z,33.22
2023-04-03T09:45:06.012Z,34.82
2023-04-03T09:47:20.687Z,33.80
2023-04-03T09:49:22.606Z,33.74
2023-04-03T09:51:27.228Z,32.91
2023-04-03T09:53:32.427Z,33.66
2023-04-03T09:55:43.386Z,33.00
2023-04-03T09:57:45.662Z,31.88
2023-04-03T09:59:59.111Z,32.20
2023-04-03T10:02:05.392Z,31.32
2023-04-03T10:04:12.804Z,31.57
2023-04-03T10:06:24.592Z,31.82
2023-04-03T10:08:29.822Z,32.09
2023-04-03T10:10:31.393Z,32.90
2023-04-03T10:12:33.004Z,32.14
2023-04-03T10:14:36.319Z,31.66
2023-04-03T10:16:42.737Z,32.67
2023-04-03T10:18:50.612Z,31.78
2023-04-03T10:20:55.088Z,30.34
2023-04-03T10:23:05.307Z,31.65
2023-04-03T10:25:15.770Z,30.82
2023-04-03T10:27:25.039Z,30.52
2023-04-03T10:29:37.122Z,29.99
2023-04-03T10:31:47.284Z,30.62
2023-04-03T10:34:05.436Z,30.50
2023-04-03T10:36:13.471Z,30.92
2023-04-03T10:38:23.372Z,30.77
2023-04-03T10:40:31.845Z,31.52
2023-04-03T10:42:41.320Z,30.19
2023-04-03T10:45:02.757Z,30.86
2023-04-03T10:47:13.952Z,30.26
2023-04-03T10:49:32.000Z,30.77
2023-04-03T10:51:42.233Z,30.60
2023-04-03T10:53:51.316Z,31.32
2023-04-03T10:55:58.365Z,31.35
2023-04-03T10:58:05.474Z,31.30
2023-04-03T11:00:17.071Z,31.57
2023-04-03T11:02:27.924Z,31.41
2023-04-03T11:04:37.066Z,31.16
2023-04-03T11:06:44.393Z,31.34
2023-04-03T11:08:51.281Z,32.29
2023-04-03T11:10:56.351Z,31.83
2023-04-03T11:13:02.928Z,32.13
2023-04-03T11:15:06.240Z,31.84
2023-04-03T11:17:22.210Z,31.88
2023-04-03T11:19:34.997Z,31.99
2023-04-03T11:21:41.546Z,31.95
2023-04-03T11:23:49.636Z,32.23
2023-04-03T11:25:55.223Z,30.87
2023-04-03T11:27:58.786Z,31.29
2023-04-03T11:30:00.870Z,31.52
2023-04-03T11:32:13.476Z,30.82
2023-04-03T11:34:26.337Z,31.59
2023-04-03T11:36:32.157Z,31.84
2023-04-03T11:38:38.968Z,32.64
2023-04-03T11:40:40.823Z,32.00
2023-04-03T11:42:46.902Z,31.01
2023-04-03T11:44:51.351Z,30.78
2023-04-03T11:46:57.237Z,31.14
2023-04-03T11:48:59.526Z,31.66
2023-04-03T11:51:02.751Z,31.33
2023-04-03T11:53:27.721Z,31.98
2023-04-03T11:55:58.797Z,31.49
2023-04-03T11:58:12.237Z,31.54
2023-04-03T12:00:49.902Z,31.35
2023-04-03T12:02:54.829Z,30.33
2023-04-03T12:05:29.011Z,28.97
2023-04-03T12:07:30.791Z,27.42
2023-04-03T12:10:30.397Z,25.16
2023-04-03T12:12:37.723Z,26.38
2023-04-03T12:14:39.762Z,29.13
2023-04-03T12:16:46.545Z,27.42
2023-04-03T12:19:03.190Z,28.68
2023-04-03T12:21:05.301Z,29.17
2023-04-03T12:23:25.054Z,28.26
2023-04-03T12:25:49.581Z,27.45
2023-04-03T12:27:53.075Z,27.58
2023-04-03T12:30:02.536Z,27.59
2023-04-03T12:32:13.899Z,28.16
2023-04-03T12:34:32.404Z,28.72
2023-04-03T12:36:43.461Z,29.16
2023-04-03T12:39:14.428Z,29.63
2023-04-03T12:41:24.433Z,30.23
2023-04-03T12:43:44.466Z,30.03
2023-04-03T12:45:51.468Z,30.03
2023-04-03T12:47:55.452Z,31.03
2023-04-03T12:49:58.413Z,30.22
2023-04-03T12:52:00.849Z,29.55
2023-04-03T12:54:13.491Z,28.91
2023-04-03T12:56:24.589Z,28.20
2023-04-03T12:58:28.674Z,28.41
2023-04-03T13:00:36.463Z,28.10
2023-04-03T13:02:38.124Z,28.68
2023-04-03T13:04:39.924Z,28.91
2023-04-03T13:06:43.537Z,28.51
2023-04-03T13:08:53.262Z,28.42
2023-04-03T13:10:59.132Z,28.44
2023-04-03T13:13:10.851Z,28.82
2023-04-03T13:15:18.023Z,28.34
2023-04-03T13:17:19.848Z,28.47
2023-04-03T13:19:23.270Z,27.84
2023-04-03T13:21:27.375Z,28.67
2023-04-03T13:23:29.914Z,27.61
2023-04-03T13:25:34.192Z,27.89
2023-04-03T13:27:36.496Z,28.31
2023-04-03T13:29:39.970Z,28.51
2023-04-03T13:31:42.084Z,28.35
2023-04-03T13:33:55.904Z,28.38
2023-04-03T13:35:58.878Z,27.72
2023-04-03T13:38:02.842Z,28.04
2023-04-03T13:40:11.922Z,29.80
2023-04-03T13:42:22.572Z,30.19
2023-04-03T13:44:31.204Z,28.69
2023-04-03T13:46:34.165Z,29.46
2023-04-03T13:48:39.415Z,28.59
2023-04-03T13:51:02.090Z,28.03
2023-04-03T13:53:12.879Z,28.70
2023-04-03T13:55:26.024Z,26.58
2023-04-03T13:57:29.102Z,27.10
2023-04-03T13:59:32.492Z,27.88
2023-04-03T14:01:42.180Z,27.84
2023-04-03T14:03:46.800Z,27.74
2023-04-03T14:05:48.898Z,28.23
2023-04-03T14:07:50.684Z,28.75
2023-04-03T14:09:53.191Z,29.33
2023-04-03T14:11:58.528Z,31.37
2023-04-03T14:14:03.919Z,27.83
2023-04-03T14:16:15.587Z,27.83
2023-04-03T14:18:20.975Z,27.29
2023-04-03T14:20:25.728Z,25.39
2023-04-03T14:22:30.446Z,26.09
2023-04-03T14:24:32.088Z,33.17
2023-04-03T14:26:34.186Z,26.58
2023-04-03T14:28:36.150Z,26.84
2023-04-03T14:30:37.893Z,26.64
2023-04-03T14:32:39.903Z,26.92
2023-04-03T14:34:44.454Z,25.89
2023-04-03T14:36:46.245Z,26.60
2023-04-03T14:38:50.003Z,25.64
2023-04-03T14:40:52.085Z,25.84
2023-04-03T14:42:54.454Z,26.05
2023-04-03T14:44:56.093Z,26.79
2023-04-03T14:46:57.802Z,26.53
2023-04-03T14:49:00.044Z,26.22
2023-04-03T14:51:06.050Z,27.57
2023-04-03T14:53:08.083Z,26.46
2023-04-03T14:55:10.548Z,27.23
2023-04-03T14:57:14.982Z,26.03
2023-04-03T14:59:16.777Z,26.79
2023-04-03T15:01:18.986Z,27.18
2023-04-03T15:03:23.138Z,27.35
2023-04-03T15:05:25.125Z,27.48
2023-04-03T15:07:31.271Z,27.08
2023-04-03T15:09:32.978Z,27.05
2023-04-03T15:11:34.566Z,26.62
2023-04-03T15:13:36.575Z,26.89
2023-04-03T15:15:39.042Z,26.74
2023-04-03T15:17:49.434Z,25.88
2023-04-03T15:19:51.142Z,26.98
2023-04-03T15:21:52.732Z,26.50
2023-04-03T15:23:55.682Z,25.36
2023-04-03T15:25:57.819Z,26.12
2023-04-03T15:28:00.882Z,26.24
2023-04-03T15:30:03.916Z,26.08
2023-04-03T15:32:06.113Z,26.67
2023-04-03T15:34:07.775Z,26.18
2023-04-03T15:36:22.968Z,27.02
2023-04-03T15:38:31.801Z,25.46
2023-04-03T15:40:35.017Z,26.11
2023-04-03T15:42:36.732Z,26.51
2023-04-03T15:44:38.391Z,26.31
2023-04-03T15:46:40.245Z,27.86
2023-04-03T15:48:41.838Z,27.53
2023-04-03T15:50:43.670Z,27.10
2023-04-03T15:52:45.334Z,26.56
2023-04-03T15:54:47.048Z,26.57
2023-04-03T15:56:50.375Z,26.37
2023-04-03T15:58:51.971Z,27.26
2023-04-03T16:00:53.871Z,25.77
2023-04-03T16:02:59.108Z,33.91
2023-04-03T16:05:03.559Z,26.94
2023-04-03T16:07:05.485Z,26.22
2023-04-03T16:09:07.802Z,26.39
2023-04-03T16:11:09.686Z,26.83
2023-04-03T16:13:12.940Z,27.05
2023-04-03T16:15:14.649Z,27.13
2023-04-03T16:17:16.325Z,26.92
2023-04-03T16:19:18.482Z,27.13
2023-04-03T16:21:20.137Z,26.61
2023-04-03T16:23:22.669Z,26.69
2023-04-03T16:25:24.201Z,25.32
2023-04-03T16:27:26.010Z,26.33
2023-04-03T16:29:28.979Z,26.93
2023-04-03T16:31:33.203Z,26.71
2023-04-03T16:33:35.118Z,27.17
2023-04-03T16:35:37.521Z,27.79
2023-04-03T16:37:40.114Z,27.78
2023-04-03T16:39:41.696Z,27.25
2023-04-03T16:41:43.305Z,27.42
2023-04-03T16:43:45.120Z,26.85
2023-04-03T16:45:48.391Z,27.21
2023-04-03T16:47:50.475Z,27.35
2023-04-03T16:49:52.345Z,27.27
2023-04-03T16:51:54.072Z,27.54
2023-04-03T16:53:58.752Z,27.18
2023-04-03T16:56:00.372Z,27.29
2023-04-03T16:58:01.983Z,26.54
2023-04-03T17:00:04.618Z,27.09
2023-04-03T17:02:07.646Z,27.28
2023-04-03T17:04:09.730Z,27.53
2023-04-03T17:06:16.332Z,27.05
2023-04-03T17:08:18.655Z,27.64
2023-04-03T17:10:20.357Z,28.68
2023-04-03T17:12:22.935Z,27.58
2023-04-03T17:14:24.594Z,28.22
2023-04-03T17:16:27.821Z,27.76
2023-04-03T17:18:31.509Z,27.71
2023-04-03T17:20:33.206Z,27.98
2023-04-03T17:22:35.082Z,27.50
2023-04-03T17:24:36.843Z,27.82
2023-04-03T17:26:39.167Z,28.08
2023-04-03T17:28:41.034Z,28.30
2023-04-03T17:30:42.744Z,28.70
2023-04-03T17:32:44.407Z,28.54
2023-04-03T17:34:48.004Z,28.42
2023-04-03T17:36:49.735Z,28.65
2023-04-03T17:38:51.963Z,28.62
2023-04-03T17:40:56.875Z,28.21
2023-04-03T17:42:58.515Z,28.50
2023-04-03T17:45:00.419Z,28.36
2023-04-03T17:47:02.020Z,29.06
2023-04-03T17:49:03.782Z,29.14
2023-04-03T17:51:07.702Z,28.93
2023-04-03T17:53:12.681Z,28.80
2023-04-03T17:55:16.810Z,29.08
2023-04-03T17:57:18.398Z,28.89
2023-04-03T17:59:20.016Z,29.04
2023-04-03T18:01:24.123Z,29.04
2023-04-03T18:03:25.730Z,29.30
2023-04-03T18:05:28.776Z,29.28
2023-04-03T18:07:31.808Z,29.79
2023-04-03T18:09:34.120Z,29.14
2023-04-03T18:11:36.178Z,29.78
2023-04-03T18:13:38.091Z,29.51
2023-04-03T18:15:39.897Z,29.76
2023-04-03T18:17:41.786Z,30.30
2023-04-03T18:19:43.523Z,29.82
2023-04-03T18:21:45.301Z,29.98
2023-04-03T18:23:52.740Z,30.02
2023-04-03T18:25:54.765Z,29.81
2023-04-03T18:27:56.520Z,30.22
2023-04-03T18:30:02.335Z,30.29
2023-04-03T18:32:07.422Z,30.10
2023-04-03T18:34:09.084Z,30.29
2023-04-03T18:36:11.068Z,30.54
2023-04-03T18:38:12.805Z,30.61
2023-04-03T18:40:15.773Z,30.27
2023-04-03T18:42:21.324Z,30.45
2023-04-03T18:44:24.809Z,30.35
2023-04-03T18:46:26.474Z,30.38
2023-04-03T18:48:30.067Z,30.50
2023-04-03T18:50:32.849Z,30.41
2023-04-03T18:52:34.800Z,30.41
2023-04-03T18:54:36.450Z,30.82
2023-04-03T18:56:39.453Z,31.03
2023-04-03T18:58:41.295Z,31.14
2023-04-03T19:00:43.232Z,30.83
2023-04-03T19:02:45.473Z,31.35
2023-04-03T19:04:47.940Z,31.20
2023-04-03T19:06:49.857Z,31.73
2023-04-03T19:08:51.673Z,31.59
2023-04-03T19:10:53.263Z,31.69
2023-04-03T19:12:56.186Z,31.83
2023-04-03T19:14:57.800Z,31.90
2023-04-03T19:16:59.485Z,32.16
2023-04-03T19:19:01.243Z,32.12
2023-04-03T19:21:03.014Z,32.31
2023-04-03T19:23:04.707Z,32.67
2023-04-03T19:25:08.095Z,32.43
2023-04-03T19:27:09.815Z,32.62
2023-04-03T19:29:12.759Z,31.80
2023-04-03T19:31:16.164Z,32.74
2023-04-03T19:33:17.833Z,32.33
2023-04-03T19:35:19.896Z,32.61
2023-04-03T19:37:21.500Z,32.38
2023-04-03T19:39:23.487Z,32.93
2023-04-03T19:41:27.534Z,32.73
2023-04-03T19:43:29.186Z,32.92
2023-04-03T19:45:32.242Z,33.19
2023-04-03T19:47:34.253Z,33.45
2023-04-03T19:49:35.905Z,33.36
2023-04-03T19:51:37.528Z,33.28
2023-04-03T19:53:39.204Z,33.43
2023-04-03T19:55:40.846Z,33.09
2023-04-03T19:57:42.563Z,33.25
2023-04-03T19:59:44.206Z,33.44
2023-04-03T20:01:47.327Z,33.44
2023-04-03T20:03:49.067Z,33.33
2023-04-03T20:05:50.764Z,33.24
2023-04-03T20:07:52.390Z,33.31
2023-04-03T20:09:54.114Z,33.43
2023-04-03T20:11:55.622Z,33.33
2023-04-03T20:13:57.166Z,33.48
2023-04-03T20:16:02.215Z,33.32
2023-04-03T20:18:05.433Z,33.82
2023-04-03T20:20:08.641Z,33.81
2023-04-03T20:22:10.260Z,33.73
2023-04-03T20:24:12.646Z,33.80
2023-04-03T20:26:20.175Z,33.93
2023-04-03T20:28:22.857Z,34.08
2023-04-03T20:30:24.576Z,34.31
2023-04-03T20:32:26.323Z,34.10
2023-04-03T20:34:29.330Z,34.34
2023-04-03T20:36:31.331Z,34.58
2023-04-03T20:38:32.988Z,34.40
2023-04-03T20:40:35.202Z,34.73
2023-04-03T20:42:36.742Z,34.38
2023-04-03T20:44:38.957Z,34.18
2023-04-03T20:46:52.313Z,34.35
2023-04-03T20:48:54.921Z,34.66
2023-04-03T20:50:57.931Z,34.68
2023-04-03T20:53:00.146Z,34.44
2023-04-03T20:55:01.788Z,34.10
2023-04-03T20:57:03.382Z,34.83
2023-04-03T20:59:05.066Z,34.40
2023-04-03T21:01:15.344Z,34.26
2023-04-03T21:03:16.999Z,34.25
2023-04-03T21:05:18.737Z,34.55
2023-04-03T21:07:57.847Z,34.12
2023-04-03T21:10:36.936Z,34.60
2023-04-03T21:13:15.452Z,34.95
2023-04-03T21:15:47.932Z,34.50
2023-04-03T21:18:14.314Z,34.86
2023-04-03T21:20:16.052Z,34.61
2023-04-03T21:22:17.666Z,34.63
2023-04-03T21:24:26.597Z,34.57
2023-04-03T21:26:28.340Z,34.32
2023-04-03T21:28:30.227Z,34.73
2023-04-03T21:30:31.843Z,34.94
2023-04-03T21:32:33.447Z,35.34
2023-04-03T21:34:36.513Z,35.22
2023-04-03T21:36:40.064Z,35.86
2023-04-03T21:38:41.825Z,35.56
2023-04-03T21:40:43.351Z,35.40
2023-04-03T21:42:44.900Z,35.35
2023-04-03T21:44:46.484Z,35.12
2023-04-03T21:46:49.247Z,35.37
2023-04-03T21:48:51.116Z,36.19
2023-04-03T21:50:54.017Z,35.63
2023-04-03T21:52:55.565Z,35.86
2023-04-03T21:54:57.080Z,35.75
2023-04-03T21:56:58.669Z,36.16
2023-04-03T21:59:01.672Z,36.15
2023-04-03T22:01:10.142Z,35.71
2023-04-03T22:03:11.778Z,36.03
2023-04-03T22:05:13.525Z,35.62
2023-04-03T22:07:16.624Z,35.95
2023-04-03T22:09:18.192Z,36.04
2023-04-03T22:11:20.073Z,35.84
2023-04-03T22:13:21.680Z,36.24
2023-04-03T22:15:23.188Z,36.43
2023-04-03T22:17:24.850Z,35.83
2023-04-03T22:19:26.526Z,35.93
2023-04-03T22:21:28.209Z,36.29
2023-04-03T22:23:31.190Z,36.49
2023-04-03T22:25:33.147Z,36.61
2023-04-03T22:27:34.822Z,37.70
2023-04-03T22:29:36.364Z,37.36
2023-04-03T22:31:37.900Z,37.28
2023-04-03T22:33:40.670Z,38.45
2023-04-03T22:35:46.024Z,38.03
2023-04-03T22:37:47.673Z,37.95
2023-04-03T22:39:50.629Z,37.14
2023-04-03T22:41:52.186Z,36.59
2023-04-03T22:43:53.760Z,36.76
2023-04-03T22:45:56.118Z,37.65
2023-04-03T22:47:57.799Z,37.09
2023-04-03T22:49:59.401Z,37.87
2023-04-03T22:52:00.938Z,38.45
2023-04-03T22:54:02.597Z,39.18
2023-04-03T22:56:06.933Z,38.57
2023-04-03T22:58:11.427Z,38.17
2023-04-03T23:00:14.443Z,38.06
2023-04-03T23:02:16.092Z,38.35
2023-04-03T23:04:17.920Z,37.90
2023-04-03T23:06:19.529Z,37.90
2023-04-03T23:08:21.117Z,37.24
2023-04-03T23:10:22.721Z,36.67
2023-04-03T23:12:25.718Z,36.38
2023-04-03T23:14:27.250Z,36.72
2023-04-03T23:16:28.914Z,36.74
2023-04-03T23:18:31.716Z,36.49
2023-04-03T23:20:33.332Z,36.49
2023-04-03T23:22:34.910Z,36.13
2023-04-03T23:24:36.512Z,36.51
2023-04-03T23:26:38.048Z,35.75
2023-04-03T23:28:43.734Z,36.30
2023-04-03T23:30:45.447Z,35.87
2023-04-03T23:32:47.102Z,36.24
2023-04-03T23:34:48.644Z,35.87
2023-04-03T23:36:50.220Z,36.06
2023-04-03T23:38:55.870Z,36.25
2023-04-03T23:40:57.504Z,35.46
2023-04-03T23:42:59.289Z,35.67
2023-04-03T23:45:02.531Z,35.35
2023-04-03T23:47:04.599Z,35.88
2023-04-03T23:49:06.174Z,36.38
2023-04-03T23:51:07.823Z,36.01
2023-04-03T23:53:09.373Z,36.02
2023-04-03T23:55:11.008Z,36.05
2023-04-03T23:57:12.570Z,35.35
2023-04-03T23:59:14.152Z,36.07
